sensor_id;sensor_type;location;lat;lon;timestamp;temperature;humidity
10597;DHT22;5346;48.766;8.674;2023-01-29T00:01:45;-3.50;99.90
10597;DHT22;5346;48.766;8.674;2023-01-29T00:04:14;-3.50;99.90
10597;DHT22;5346;48.766;8.674;2023-01-29T00:06:48;-3.60;99.90
10597;DHT22;5346;48.766;8.674;2023-01-29T00:09:21;-3.60;99.90
10597;DHT22;5346;48.766;8.674;2023-01-29T00:11:54;-3.50;99.90
10597;DHT22;5346;48.766;8.674;2023-01-29T00:14:22;-3.50;91.80
10597;DHT22;5346;48.766;8.674;2023-01-29T00:16:55;-3.50;3.80
10597;DHT22;5346;48.766;8.674;2023-01-29T00:19:30;-3.60;1.00
10597;DHT22;5346;48.766;8.674;2023-01-29T00:22:03;-3.60;1.00
10597;DHT22;5346;48.766;8.674;2023-01-29T00:24:37;-3.60;1.00
10597;DHT22;5346;48.766;8.674;2023-01-29T00:27:04;-3.60;33.70
10597;DHT22;5346;48.766;8.674;2023-01-29T00:29:38;-3.60;67.80
10597;DHT22;5346;48.766;8.674;2023-01-29T00:32:12;-3.60;99.90
10597;DHT22;5346;48.766;8.674;2023-01-29T00:34:39;-3.60;98.80
10597;DHT22;5346;48.766;8.674;2023-01-29T00:37:13;-3.60;58.30
10597;DHT22;5346;48.766;8.674;2023-01-29T00:39:40;-3.60;16.70
10597;DHT22;5346;48.766;8.674;2023-01-29T00:42:14;-3.70;16.30
10597;DHT22;5346;48.766;8.674;2023-01-29T00:44:59;-3.70;31.30
10597;DHT22;5346;48.766;8.674;2023-01-29T00:47:32;-3.70;85.40
10597;DHT22;5346;48.766;8.674;2023-01-29T00:50:09;-3.70;99.90
10597;DHT22;5346;48.766;8.674;2023-01-29T00:52:44;-3.70;90.90
10597;DHT22;5346;48.766;8.674;2023-01-29T00:55:17;-3.80;15.10
10597;DHT22;5346;48.766;8.674;2023-01-29T00:57:51;-3.80;16.80
10597;DHT22;5346;48.766;8.674;2023-01-29T01:00:25;-3.80;42.80
10597;DHT22;5346;48.766;8.674;2023-01-29T01:02:53;-3.80;57.20
10597;DHT22;5346;48.766;8.674;2023-01-29T01:05:38;-3.70;94.20
10597;DHT22;5346;48.766;8.674;2023-01-29T01:08:12;-3.80;99.90
10597;DHT22;5346;48.766;8.674;2023-01-29T01:11:05;-3.70;99.90
10597;DHT22;5346;48.766;8.674;2023-01-29T01:13:38;-3.80;99.90
10597;DHT22;5346;48.766;8.674;2023-01-29T01:16:15;-3.70;99.90
10597;DHT22;5346;48.766;8.674;2023-01-29T01:18:50;-3.70;99.90
10597;DHT22;5346;48.766;8.674;2023-01-29T01:21:24;-3.70;99.90
10597;DHT22;5346;48.766;8.674;2023-01-29T01:23:52;-3.70;99.90
10597;DHT22;5346;48.766;8.674;2023-01-29T01:26:26;-3.70;99.90
10597;DHT22;5346;48.766;8.674;2023-01-29T01:28:53;-3.70;99.90
10597;DHT22;5346;48.766;8.674;2023-01-29T01:31:26;-3.80;99.90
10597;DHT22;5346;48.766;8.674;2023-01-29T01:34:00;-3.70;99.90
10597;DHT22;5346;48.766;8.674;2023-01-29T01:36:33;-3.70;99.90
10597;DHT22;5346;48.766;8.674;2023-01-29T01:39:07;-3.70;99.90
10597;DHT22;5346;48.766;8.674;2023-01-29T01:41:34;-3.70;99.90
10597;DHT22;5346;48.766;8.674;2023-01-29T01:47:34;-3.70;37.90
10597;DHT22;5346;48.766;8.674;2023-01-29T01:50:28;-3.80;51.00
10597;DHT22;5346;48.766;8.674;2023-01-29T01:53:20;-3.70;82.90
10597;DHT22;5346;48.766;8.674;2023-01-29T01:56:02;-3.80;99.90
10597;DHT22;5346;48.766;8.674;2023-01-29T01:58:42;-3.80;99.90
10597;DHT22;5346;48.766;8.674;2023-01-29T02:01:25;-3.80;99.90
10597;DHT22;5346;48.766;8.674;2023-01-29T02:04:09;-3.80;99.90
10597;DHT22;5346;48.766;8.674;2023-01-29T02:07:07;-3.80;99.90
10597;DHT22;5346;48.766;8.674;2023-01-29T02:10:05;-3.80;99.90
10597;DHT22;5346;48.766;8.674;2023-01-29T02:12:43;-3.80;99.90
10597;DHT22;5346;48.766;8.674;2023-01-29T02:15:12;-3.80;99.90
10597;DHT22;5346;48.766;8.674;2023-01-29T02:17:45;-3.80;99.90
10597;DHT22;5346;48.766;8.674;2023-01-29T02:20:26;-3.80;99.90
10597;DHT22;5346;48.766;8.674;2023-01-29T02:23:24;-3.80;99.90
10597;DHT22;5346;48.766;8.674;2023-01-29T02:29:54;-3.90;1.00
10597;DHT22;5346;48.766;8.674;2023-01-29T02:32:50;-3.90;1.00
10597;DHT22;5346;48.766;8.674;2023-01-29T02:35:38;-3.90;1.00
10597;DHT22;5346;48.766;8.674;2023-01-29T02:41:33;-4.00;1.00
10597;DHT22;5346;48.766;8.674;2023-01-29T02:44:34;-4.00;1.00
10597;DHT22;5346;48.766;8.674;2023-01-29T02:47:15;-4.10;1.00
10597;DHT22;5346;48.766;8.674;2023-01-29T02:50:08;-4.10;1.00
10597;DHT22;5346;48.766;8.674;2023-01-29T02:52:58;-4.10;1.00
10597;DHT22;5346;48.766;8.674;2023-01-29T02:55:50;-4.00;1.00
10597;DHT22;5346;48.766;8.674;2023-01-29T02:58:32;-4.00;1.00
10597;DHT22;5346;48.766;8.674;2023-01-29T03:01:46;-4.00;1.00
10597;DHT22;5346;48.766;8.674;2023-01-29T03:04:20;-4.00;1.00
10597;DHT22;5346;48.766;8.674;2023-01-29T03:07:02;-4.00;1.00
10597;DHT22;5346;48.766;8.674;2023-01-29T03:09:44;-4.00;1.00
10597;DHT22;5346;48.766;8.674;2023-01-29T03:12:21;-4.00;1.00
10597;DHT22;5346;48.766;8.674;2023-01-29T03:15:15;-4.00;1.00
10597;DHT22;5346;48.766;8.674;2023-01-29T03:17:56;-4.00;1.00
10597;DHT22;5346;48.766;8.674;2023-01-29T03:20:40;-4.00;1.00
10597;DHT22;5346;48.766;8.674;2023-01-29T03:23:34;-4.00;1.00
10597;DHT22;5346;48.766;8.674;2023-01-29T03:26:27;-4.10;1.00
10597;DHT22;5346;48.766;8.674;2023-01-29T03:29:20;-4.10;1.00
10597;DHT22;5346;48.766;8.674;2023-01-29T03:32:06;-4.10;1.00
10597;DHT22;5346;48.766;8.674;2023-01-29T03:34:46;-4.10;1.00
10597;DHT22;5346;48.766;8.674;2023-01-29T03:37:35;-4.20;1.00
10597;DHT22;5346;48.766;8.674;2023-01-29T03:40:16;-4.20;1.00
10597;DHT22;5346;48.766;8.674;2023-01-29T03:42:55;-4.30;1.00
10597;DHT22;5346;48.766;8.674;2023-01-29T03:45:50;-4.30;1.00
10597;DHT22;5346;48.766;8.674;2023-01-29T03:48:38;-4.30;1.00
10597;DHT22;5346;48.766;8.674;2023-01-29T03:51:27;-4.20;1.00
10597;DHT22;5346;48.766;8.674;2023-01-29T03:54:04;-4.30;1.00
10597;DHT22;5346;48.766;8.674;2023-01-29T03:57:09;-4.30;1.00
10597;DHT22;5346;48.766;8.674;2023-01-29T04:00:03;-4.20;1.00
10597;DHT22;5346;48.766;8.674;2023-01-29T04:06:11;-4.20;1.00
10597;DHT22;5346;48.766;8.674;2023-01-29T04:09:13;-4.20;1.00
10597;DHT22;5346;48.766;8.674;2023-01-29T04:12:03;-4.30;99.90
10597;DHT22;5346;48.766;8.674;2023-01-29T04:14:35;-4.40;99.90
10597;DHT22;5346;48.766;8.674;2023-01-29T04:17:17;-4.30;99.90
10597;DHT22;5346;48.766;8.674;2023-01-29T04:19:53;-4.40;99.90
10597;DHT22;5346;48.766;8.674;2023-01-29T04:22:33;-4.40;99.90
10597;DHT22;5346;48.766;8.674;2023-01-29T04:25:09;-4.40;99.90
10597;DHT22;5346;48.766;8.674;2023-01-29T04:30:53;-4.30;99.90
10597;DHT22;5346;48.766;8.674;2023-01-29T04:36:55;-4.40;1.00
10597;DHT22;5346;48.766;8.674;2023-01-29T04:39:46;-4.40;1.00
10597;DHT22;5346;48.766;8.674;2023-01-29T04:43:05;-4.40;1.00
10597;DHT22;5346;48.766;8.674;2023-01-29T04:52:11;-4.30;1.00
10597;DHT22;5346;48.766;8.674;2023-01-29T04:58:11;-4.30;1.00
10597;DHT22;5346;48.766;8.674;2023-01-29T05:01:04;-4.30;1.00
10597;DHT22;5346;48.766;8.674;2023-01-29T05:03:49;-4.30;99.90
10597;DHT22;5346;48.766;8.674;2023-01-29T05:06:19;-4.40;99.90
10597;DHT22;5346;48.766;8.674;2023-01-29T05:08:55;-4.40;99.90
10597;DHT22;5346;48.766;8.674;2023-01-29T05:11:31;-4.40;99.90
10597;DHT22;5346;48.766;8.674;2023-01-29T05:14:10;-4.40;1.00
10597;DHT22;5346;48.766;8.674;2023-01-29T05:16:50;-4.40;1.00
10597;DHT22;5346;48.766;8.674;2023-01-29T05:19:25;-4.40;1.00
10597;DHT22;5346;48.766;8.674;2023-01-29T05:21:59;-4.40;1.00
10597;DHT22;5346;48.766;8.674;2023-01-29T05:24:34;-4.50;1.00
10597;DHT22;5346;48.766;8.674;2023-01-29T05:27:02;-4.50;1.00
10597;DHT22;5346;48.766;8.674;2023-01-29T05:29:55;-4.40;1.00
10597;DHT22;5346;48.766;8.674;2023-01-29T05:32:29;-4.40;1.00
10597;DHT22;5346;48.766;8.674;2023-01-29T05:34:56;-4.40;1.00
10597;DHT22;5346;48.766;8.674;2023-01-29T05:37:30;-4.40;1.00
10597;DHT22;5346;48.766;8.674;2023-01-29T05:39:57;-4.40;1.00
10597;DHT22;5346;48.766;8.674;2023-01-29T05:42:31;-4.40;1.00
10597;DHT22;5346;48.766;8.674;2023-01-29T05:44:58;-4.40;1.00
10597;DHT22;5346;48.766;8.674;2023-01-29T05:47:32;-4.40;1.00
10597;DHT22;5346;48.766;8.674;2023-01-29T05:49:59;-4.40;1.00
10597;DHT22;5346;48.766;8.674;2023-01-29T05:52:32;-4.30;1.00
10597;DHT22;5346;48.766;8.674;2023-01-29T05:55:07;-4.30;1.00
10597;DHT22;5346;48.766;8.674;2023-01-29T05:57:41;-4.30;1.00
10597;DHT22;5346;48.766;8.674;2023-01-29T06:00:24;-4.40;1.00
10597;DHT22;5346;48.766;8.674;2023-01-29T06:03:04;-4.40;1.00
10597;DHT22;5346;48.766;8.674;2023-01-29T06:05:38;-4.40;1.00
10597;DHT22;5346;48.766;8.674;2023-01-29T06:08:07;-4.40;1.00
10597;DHT22;5346;48.766;8.674;2023-01-29T06:10:41;-4.40;1.00
10597;DHT22;5346;48.766;8.674;2023-01-29T06:13:10;-4.40;1.00
10597;DHT22;5346;48.766;8.674;2023-01-29T06:15:43;-4.50;1.00
10597;DHT22;5346;48.766;8.674;2023-01-29T06:18:17;-4.40;1.00
10597;DHT22;5346;48.766;8.674;2023-01-29T06:20:44;-4.40;1.00
10597;DHT22;5346;48.766;8.674;2023-01-29T06:23:17;-4.40;1.00
10597;DHT22;5346;48.766;8.674;2023-01-29T06:25:51;-4.40;1.00
10597;DHT22;5346;48.766;8.674;2023-01-29T06:28:24;-4.40;1.00
10597;DHT22;5346;48.766;8.674;2023-01-29T06:30:56;-4.40;1.00
10597;DHT22;5346;48.766;8.674;2023-01-29T06:33:51;-4.40;1.00
10597;DHT22;5346;48.766;8.674;2023-01-29T06:36:18;-4.40;1.00
10597;DHT22;5346;48.766;8.674;2023-01-29T06:38:51;-4.40;1.00
10597;DHT22;5346;48.766;8.674;2023-01-29T06:41:19;-4.40;1.00
10597;DHT22;5346;48.766;8.674;2023-01-29T06:43:56;-4.30;1.00
10597;DHT22;5346;48.766;8.674;2023-01-29T06:46:30;-4.40;1.00
10597;DHT22;5346;48.766;8.674;2023-01-29T06:48:58;-4.30;1.00
10597;DHT22;5346;48.766;8.674;2023-01-29T06:51:34;-4.30;1.00
10597;DHT22;5346;48.766;8.674;2023-01-29T06:54:10;-4.30;1.00
10597;DHT22;5346;48.766;8.674;2023-01-29T06:56:44;-4.30;1.00
10597;DHT22;5346;48.766;8.674;2023-01-29T06:59:18;-4.30;1.00
10597;DHT22;5346;48.766;8.674;2023-01-29T07:01:45;-4.20;1.00
10597;DHT22;5346;48.766;8.674;2023-01-29T07:04:32;-4.30;1.00
10597;DHT22;5346;48.766;8.674;2023-01-29T07:07:08;-4.30;1.00
10597;DHT22;5346;48.766;8.674;2023-01-29T07:09:40;-4.20;1.00
10597;DHT22;5346;48.766;8.674;2023-01-29T07:12:13;-4.30;1.00
10597;DHT22;5346;48.766;8.674;2023-01-29T07:14:47;-4.20;1.00
10597;DHT22;5346;48.766;8.674;2023-01-29T07:17:20;-4.20;1.00
10597;DHT22;5346;48.766;8.674;2023-01-29T07:19:47;-4.10;1.00
10597;DHT22;5346;48.766;8.674;2023-01-29T07:22:20;-4.10;1.00
10597;DHT22;5346;48.766;8.674;2023-01-29T07:24:47;-4.00;1.00
10597;DHT22;5346;48.766;8.674;2023-01-29T07:27:20;-4.10;1.00
10597;DHT22;5346;48.766;8.674;2023-01-29T07:29:48;-4.00;99.90
10597;DHT22;5346;48.766;8.674;2023-01-29T07:32:15;-3.90;99.90
10597;DHT22;5346;48.766;8.674;2023-01-29T07:34:49;-4.00;99.90
10597;DHT22;5346;48.766;8.674;2023-01-29T07:37:22;-3.80;99.90
10597;DHT22;5346;48.766;8.674;2023-01-29T07:39:55;-3.80;99.90
10597;DHT22;5346;48.766;8.674;2023-01-29T07:42:22;-3.70;1.00
10597;DHT22;5346;48.766;8.674;2023-01-29T07:44:56;-3.60;1.00
10597;DHT22;5346;48.766;8.674;2023-01-29T07:47:31;-3.50;99.90
10597;DHT22;5346;48.766;8.674;2023-01-29T07:49:58;-3.60;99.90
10597;DHT22;5346;48.766;8.674;2023-01-29T07:52:32;-3.50;99.90
10597;DHT22;5346;48.766;8.674;2023-01-29T07:54:59;-3.50;54.20
10597;DHT22;5346;48.766;8.674;2023-01-29T07:57:33;-3.50;37.40
10597;DHT22;5346;48.766;8.674;2023-01-29T08:00:00;-3.40;3.30
10597;DHT22;5346;48.766;8.674;2023-01-29T08:02:34;-3.50;1.00
10597;DHT22;5346;48.766;8.674;2023-01-29T08:05:15;-3.50;1.00
10597;DHT22;5346;48.766;8.674;2023-01-29T08:07:52;-3.50;1.00
10597;DHT22;5346;48.766;8.674;2023-01-29T08:10:35;-3.50;1.00
10597;DHT22;5346;48.766;8.674;2023-01-29T08:13:09;-3.40;1.00
10597;DHT22;5346;48.766;8.674;2023-01-29T08:15:46;-3.50;1.00
10597;DHT22;5346;48.766;8.674;2023-01-29T08:18:14;-3.50;1.00
10597;DHT22;5346;48.766;8.674;2023-01-29T08:20:48;-3.40;1.00
10597;DHT22;5346;48.766;8.674;2023-01-29T08:23:15;-3.40;1.00
10597;DHT22;5346;48.766;8.674;2023-01-29T08:25:49;-3.40;1.00
10597;DHT22;5346;48.766;8.674;2023-01-29T08:28:23;-3.30;1.00
10597;DHT22;5346;48.766;8.674;2023-01-29T08:30:56;-3.30;1.00
10597;DHT22;5346;48.766;8.674;2023-01-29T08:33:24;-3.20;1.00
10597;DHT22;5346;48.766;8.674;2023-01-29T08:36:06;-3.30;1.00
10597;DHT22;5346;48.766;8.674;2023-01-29T08:38:38;-3.30;1.00
10597;DHT22;5346;48.766;8.674;2023-01-29T08:41:11;-3.20;1.00
10597;DHT22;5346;48.766;8.674;2023-01-29T08:43:38;-3.10;1.00
10597;DHT22;5346;48.766;8.674;2023-01-29T08:46:13;-3.10;1.00
10597;DHT22;5346;48.766;8.674;2023-01-29T08:48:40;-3.00;1.00
10597;DHT22;5346;48.766;8.674;2023-01-29T08:51:14;-3.00;1.00
10597;DHT22;5346;48.766;8.674;2023-01-29T08:53:48;-3.00;1.00
10597;DHT22;5346;48.766;8.674;2023-01-29T08:56:21;-2.90;1.00
10597;DHT22;5346;48.766;8.674;2023-01-29T08:58:48;-2.90;1.00
10597;DHT22;5346;48.766;8.674;2023-01-29T09:01:24;-2.80;1.00
10597;DHT22;5346;48.766;8.674;2023-01-29T09:04:04;-2.80;99.90
10597;DHT22;5346;48.766;8.674;2023-01-29T09:06:37;-2.70;99.90
10597;DHT22;5346;48.766;8.674;2023-01-29T09:09:05;-2.70;99.90
10597;DHT22;5346;48.766;8.674;2023-01-29T09:11:38;-2.60;99.90
10597;DHT22;5346;48.766;8.674;2023-01-29T09:14:06;-2.30;99.90
10597;DHT22;5346;48.766;8.674;2023-01-29T09:16:39;-2.30;99.90
10597;DHT22;5346;48.766;8.674;2023-01-29T09:19:14;-2.30;99.90
10597;DHT22;5346;48.766;8.674;2023-01-29T09:21:47;-2.40;32.30
10597;DHT22;5346;48.766;8.674;2023-01-29T09:24:15;-2.40;34.90
10597;DHT22;5346;48.766;8.674;2023-01-29T09:26:49;-2.50;1.00
10597;DHT22;5346;48.766;8.674;2023-01-29T09:29:16;-2.60;1.00
10597;DHT22;5346;48.766;8.674;2023-01-29T09:31:49;-2.70;10.80
10597;DHT22;5346;48.766;8.674;2023-01-29T09:34:24;-2.70;32.50
10597;DHT22;5346;48.766;8.674;2023-01-29T09:36:53;-2.70;6.40
10597;DHT22;5346;48.766;8.674;2023-01-29T09:39:28;-2.50;1.50
10597;DHT22;5346;48.766;8.674;2023-01-29T09:42:23;-2.40;2.00
10597;DHT22;5346;48.766;8.674;2023-01-29T09:45:05;-2.30;1.00
10597;DHT22;5346;48.766;8.674;2023-01-29T09:47:41;-2.10;1.00
10597;DHT22;5346;48.766;8.674;2023-01-29T09:50:25;-1.80;1.00
10597;DHT22;5346;48.766;8.674;2023-01-29T09:55:56;-1.70;1.00
10597;DHT22;5346;48.766;8.674;2023-01-29T09:58:37;-1.70;1.00
10597;DHT22;5346;48.766;8.674;2023-01-29T10:10:17;-1.50;1.00
10597;DHT22;5346;48.766;8.674;2023-01-29T10:13:10;-1.50;1.40
10597;DHT22;5346;48.766;8.674;2023-01-29T10:22:43;-1.60;99.90
10597;DHT22;5346;48.766;8.674;2023-01-29T10:25:38;-1.60;1.00
10597;DHT22;5346;48.766;8.674;2023-01-29T10:31:22;-1.50;99.90
10597;DHT22;5346;48.766;8.674;2023-01-29T10:34:13;-1.50;99.90
10597;DHT22;5346;48.766;8.674;2023-01-29T10:37:18;-1.60;1.00
10597;DHT22;5346;48.766;8.674;2023-01-29T10:39:50;-1.50;99.90
10597;DHT22;5346;48.766;8.674;2023-01-29T10:42:41;-1.20;99.90
10597;DHT22;5346;48.766;8.674;2023-01-29T10:45:42;-1.00;99.90
10597;DHT22;5346;48.766;8.674;2023-01-29T10:49:48;-1.00;99.90
10597;DHT22;5346;48.766;8.674;2023-01-29T10:55:01;-1.00;99.90
10597;DHT22;5346;48.766;8.674;2023-01-29T11:00:44;-0.80;15.00
10597;DHT22;5346;48.766;8.674;2023-01-29T11:03:22;-0.80;72.40
10597;DHT22;5346;48.766;8.674;2023-01-29T11:09:05;-0.60;39.60
10597;DHT22;5346;48.766;8.674;2023-01-29T11:11:53;-0.50;1.00
10597;DHT22;5346;48.766;8.674;2023-01-29T11:14:52;-0.40;1.00
10597;DHT22;5346;48.766;8.674;2023-01-29T11:18:08;-0.50;1.00
10597;DHT22;5346;48.766;8.674;2023-01-29T11:20:59;-0.50;1.00
10597;DHT22;5346;48.766;8.674;2023-01-29T11:23:35;-0.40;1.00
10597;DHT22;5346;48.766;8.674;2023-01-29T11:26:02;-0.30;1.00
10597;DHT22;5346;48.766;8.674;2023-01-29T11:28:45;-0.20;1.00
10597;DHT22;5346;48.766;8.674;2023-01-29T11:31:26;-0.10;1.00
10597;DHT22;5346;48.766;8.674;2023-01-29T11:34:20;0.00;1.00
10597;DHT22;5346;48.766;8.674;2023-01-29T11:37:17;0.00;1.00
10597;DHT22;5346;48.766;8.674;2023-01-29T11:39:50;-0.20;1.00
10597;DHT22;5346;48.766;8.674;2023-01-29T11:42:29;-0.40;1.00
10597;DHT22;5346;48.766;8.674;2023-01-29T11:47:59;-0.50;1.00
10597;DHT22;5346;48.766;8.674;2023-01-29T11:50:33;-0.70;1.00
10597;DHT22;5346;48.766;8.674;2023-01-29T11:53:39;-0.60;1.00
10597;DHT22;5346;48.766;8.674;2023-01-29T11:56:26;-0.70;1.00
10597;DHT22;5346;48.766;8.674;2023-01-29T11:58:57;-0.70;1.00
10597;DHT22;5346;48.766;8.674;2023-01-29T12:01:39;-0.60;1.00
10597;DHT22;5346;48.766;8.674;2023-01-29T12:04:21;-0.50;1.00
10597;DHT22;5346;48.766;8.674;2023-01-29T12:07:12;-0.40;1.00
10597;DHT22;5346;48.766;8.674;2023-01-29T12:09:54;-0.30;1.00
10597;DHT22;5346;48.766;8.674;2023-01-29T12:12:40;-0.20;1.00
10597;DHT22;5346;48.766;8.674;2023-01-29T12:15:18;-0.30;1.00
10597;DHT22;5346;48.766;8.674;2023-01-29T12:18:41;-0.30;1.00
10597;DHT22;5346;48.766;8.674;2023-01-29T12:23:59;0.20;1.00
10597;DHT22;5346;48.766;8.674;2023-01-29T12:26:42;0.40;1.00
10597;DHT22;5346;48.766;8.674;2023-01-29T12:29:45;0.60;99.90
10597;DHT22;5346;48.766;8.674;2023-01-29T12:32:43;0.00;1.00
10597;DHT22;5346;48.766;8.674;2023-01-29T12:35:46;0.10;1.00
10597;DHT22;5346;48.766;8.674;2023-01-29T12:38:23;0.30;99.90
10597;DHT22;5346;48.766;8.674;2023-01-29T12:41:04;0.50;1.00
10597;DHT22;5346;48.766;8.674;2023-01-29T12:43:46;0.60;99.90
10597;DHT22;5346;48.766;8.674;2023-01-29T12:46:33;0.60;99.90
10597;DHT22;5346;48.766;8.674;2023-01-29T12:49:16;0.60;1.40
10597;DHT22;5346;48.766;8.674;2023-01-29T12:52:11;0.10;99.90
10597;DHT22;5346;48.766;8.674;2023-01-29T12:55:04;0.20;1.00
10597;DHT22;5346;48.766;8.674;2023-01-29T12:57:59;0.40;1.00
10597;DHT22;5346;48.766;8.674;2023-01-29T13:00:37;0.40;99.90
10597;DHT22;5346;48.766;8.674;2023-01-29T13:03:25;0.40;99.90
10597;DHT22;5346;48.766;8.674;2023-01-29T13:06:26;0.60;99.90
10597;DHT22;5346;48.766;8.674;2023-01-29T13:09:00;0.50;99.90
10597;DHT22;5346;48.766;8.674;2023-01-29T13:11:52;0.70;99.90
10597;DHT22;5346;48.766;8.674;2023-01-29T13:14:24;0.70;99.90
10597;DHT22;5346;48.766;8.674;2023-01-29T13:17:36;0.50;99.90
10597;DHT22;5346;48.766;8.674;2023-01-29T13:20:20;0.50;99.90
10597;DHT22;5346;48.766;8.674;2023-01-29T13:23:14;0.60;99.90
10597;DHT22;5346;48.766;8.674;2023-01-29T13:25:53;0.50;99.90
10597;DHT22;5346;48.766;8.674;2023-01-29T13:28:24;0.50;99.90
10597;DHT22;5346;48.766;8.674;2023-01-29T13:31:26;0.50;99.90
10597;DHT22;5346;48.766;8.674;2023-01-29T13:34:13;0.50;99.90
10597;DHT22;5346;48.766;8.674;2023-01-29T13:36:58;0.50;99.90
10597;DHT22;5346;48.766;8.674;2023-01-29T13:39:44;0.60;99.90
10597;DHT22;5346;48.766;8.674;2023-01-29T13:42:19;0.80;99.90
10597;DHT22;5346;48.766;8.674;2023-01-29T13:45:07;0.90;99.90
10597;DHT22;5346;48.766;8.674;2023-01-29T13:47:44;0.90;99.90
10597;DHT22;5346;48.766;8.674;2023-01-29T13:50:25;0.80;99.90
10597;DHT22;5346;48.766;8.674;2023-01-29T13:53:03;0.60;99.90
10597;DHT22;5346;48.766;8.674;2023-01-29T13:55:40;0.40;99.90
10597;DHT22;5346;48.766;8.674;2023-01-29T14:01:09;0.30;99.90
10597;DHT22;5346;48.766;8.674;2023-01-29T14:03:50;0.40;99.90
10597;DHT22;5346;48.766;8.674;2023-01-29T14:06:37;0.50;99.90
10597;DHT22;5346;48.766;8.674;2023-01-29T14:17:27;1.10;99.90
10597;DHT22;5346;48.766;8.674;2023-01-29T14:20:15;1.30;99.90
10597;DHT22;5346;48.766;8.674;2023-01-29T14:23:05;1.10;99.90
10597;DHT22;5346;48.766;8.674;2023-01-29T14:25:41;1.20;99.90
10597;DHT22;5346;48.766;8.674;2023-01-29T14:28:21;1.30;99.90
10597;DHT22;5346;48.766;8.674;2023-01-29T14:30:57;1.20;99.90
10597;DHT22;5346;48.766;8.674;2023-01-29T14:33:35;1.10;99.90
10597;DHT22;5346;48.766;8.674;2023-01-29T14:36:14;0.70;99.90
10597;DHT22;5346;48.766;8.674;2023-01-29T14:38:49;0.40;99.90
10597;DHT22;5346;48.766;8.674;2023-01-29T14:41:29;0.10;1.00
10597;DHT22;5346;48.766;8.674;2023-01-29T14:53:18;-0.60;1.00
10597;DHT22;5346;48.766;8.674;2023-01-29T14:56:09;-0.50;8.30
10597;DHT22;5346;48.766;8.674;2023-01-29T14:58:48;-0.50;1.00
10597;DHT22;5346;48.766;8.674;2023-01-29T15:01:35;-0.40;1.00
10597;DHT22;5346;48.766;8.674;2023-01-29T15:04:13;-0.20;1.00
10597;DHT22;5346;48.766;8.674;2023-01-29T15:07:17;0.40;1.00
10597;DHT22;5346;48.766;8.674;2023-01-29T15:10:55;0.50;99.90
10597;DHT22;5346;48.766;8.674;2023-01-29T15:17:06;-0.20;1.00
10597;DHT22;5346;48.766;8.674;2023-01-29T15:19:44;-0.60;1.00
10597;DHT22;5346;48.766;8.674;2023-01-29T15:22:23;-0.70;1.00
10597;DHT22;5346;48.766;8.674;2023-01-29T15:25:08;-0.80;1.00
10597;DHT22;5346;48.766;8.674;2023-01-29T15:27:46;-0.90;1.00
10597;DHT22;5346;48.766;8.674;2023-01-29T15:30:26;-1.00;1.00
10597;DHT22;5346;48.766;8.674;2023-01-29T15:33:07;-1.10;13.20
10597;DHT22;5346;48.766;8.674;2023-01-29T15:35:38;-1.10;67.70
10597;DHT22;5346;48.766;8.674;2023-01-29T15:38:18;-1.10;99.90
10597;DHT22;5346;48.766;8.674;2023-01-29T15:41:15;-1.10;99.90
10597;DHT22;5346;48.766;8.674;2023-01-29T15:43:47;-1.20;99.90
10597;DHT22;5346;48.766;8.674;2023-01-29T15:46:44;-1.40;82.50
10597;DHT22;5346;48.766;8.674;2023-01-29T15:52:12;-1.90;99.90
10597;DHT22;5346;48.766;8.674;2023-01-29T15:54:43;-2.20;99.90
10597;DHT22;5346;48.766;8.674;2023-01-29T15:57:21;-2.40;99.90
10597;DHT22;5346;48.766;8.674;2023-01-29T15:59:58;-2.60;99.90
10597;DHT22;5346;48.766;8.674;2023-01-29T16:05:21;-2.90;1.00
10597;DHT22;5346;48.766;8.674;2023-01-29T16:07:59;-3.00;1.00
10597;DHT22;5346;48.766;8.674;2023-01-29T16:10:29;-3.20;17.70
10597;DHT22;5346;48.766;8.674;2023-01-29T16:13:04;-3.30;99.90
10597;DHT22;5346;48.766;8.674;2023-01-29T16:15:34;-3.40;99.90
10597;DHT22;5346;48.766;8.674;2023-01-29T16:18:43;-3.50;99.90
10597;DHT22;5346;48.766;8.674;2023-01-29T16:21:35;-3.80;99.90
10597;DHT22;5346;48.766;8.674;2023-01-29T16:24:12;-3.90;1.00
10597;DHT22;5346;48.766;8.674;2023-01-29T16:26:47;-4.00;1.00
10597;DHT22;5346;48.766;8.674;2023-01-29T16:29:30;-4.20;1.00
10597;DHT22;5346;48.766;8.674;2023-01-29T16:32:05;-4.30;1.00
10597;DHT22;5346;48.766;8.674;2023-01-29T16:34:38;-4.50;3.10
10597;DHT22;5346;48.766;8.674;2023-01-29T16:37:22;-4.60;21.50
10597;DHT22;5346;48.766;8.674;2023-01-29T16:39:51;-4.70;99.90
10597;DHT22;5346;48.766;8.674;2023-01-29T16:42:29;-4.80;1.00
10597;DHT22;5346;48.766;8.674;2023-01-29T16:45:29;-4.80;1.00
10597;DHT22;5346;48.766;8.674;2023-01-29T16:48:01;-4.90;1.00
10597;DHT22;5346;48.766;8.674;2023-01-29T16:51:05;-4.90;1.00
10597;DHT22;5346;48.766;8.674;2023-01-29T16:53:39;-4.90;99.90
10597;DHT22;5346;48.766;8.674;2023-01-29T16:56:29;-4.80;99.90
10597;DHT22;5346;48.766;8.674;2023-01-29T16:59:01;-4.70;99.90
10597;DHT22;5346;48.766;8.674;2023-01-29T17:01:36;-4.70;1.00
10597;DHT22;5346;48.766;8.674;2023-01-29T17:04:16;-4.70;1.00
10597;DHT22;5346;48.766;8.674;2023-01-29T17:06:59;-4.70;1.00
10597;DHT22;5346;48.766;8.674;2023-01-29T17:09:36;-4.60;1.00
10597;DHT22;5346;48.766;8.674;2023-01-29T17:12:05;-4.60;1.00
10597;DHT22;5346;48.766;8.674;2023-01-29T17:15:01;-4.50;1.00
10597;DHT22;5346;48.766;8.674;2023-01-29T17:17:36;-4.50;1.00
10597;DHT22;5346;48.766;8.674;2023-01-29T17:20:12;-4.50;1.00
10597;DHT22;5346;48.766;8.674;2023-01-29T17:22:49;-4.60;1.00
10597;DHT22;5346;48.766;8.674;2023-01-29T17:25:22;-4.70;1.00
10597;DHT22;5346;48.766;8.674;2023-01-29T17:27:50;-4.90;1.00
10597;DHT22;5346;48.766;8.674;2023-01-29T17:30:25;-5.00;1.00
10597;DHT22;5346;48.766;8.674;2023-01-29T17:32:55;-5.10;1.00
10597;DHT22;5346;48.766;8.674;2023-01-29T17:35:29;-5.10;1.00
10597;DHT22;5346;48.766;8.674;2023-01-29T17:37:56;-5.20;1.00
10597;DHT22;5346;48.766;8.674;2023-01-29T17:40:41;-5.30;1.00
10597;DHT22;5346;48.766;8.674;2023-01-29T17:43:19;-5.30;1.00
10597;DHT22;5346;48.766;8.674;2023-01-29T17:45:46;-5.30;1.00
10597;DHT22;5346;48.766;8.674;2023-01-29T17:48:22;-5.20;1.00
10597;DHT22;5346;48.766;8.674;2023-01-29T17:50:53;-5.30;1.00
10597;DHT22;5346;48.766;8.674;2023-01-29T17:53:28;-5.30;1.00
10597;DHT22;5346;48.766;8.674;2023-01-29T17:56:19;-5.30;1.00
10597;DHT22;5346;48.766;8.674;2023-01-29T17:58:55;-5.40;1.00
10597;DHT22;5346;48.766;8.674;2023-01-29T18:01:22;-5.40;1.00
10597;DHT22;5346;48.766;8.674;2023-01-29T18:03:56;-5.40;1.00
10597;DHT22;5346;48.766;8.674;2023-01-29T18:06:37;-5.40;1.00
10597;DHT22;5346;48.766;8.674;2023-01-29T18:09:13;-5.50;1.00
10597;DHT22;5346;48.766;8.674;2023-01-29T18:11:42;-5.40;1.00
10597;DHT22;5346;48.766;8.674;2023-01-29T18:14:16;-5.40;1.00
10597;DHT22;5346;48.766;8.674;2023-01-29T18:16:43;-5.50;1.00
10597;DHT22;5346;48.766;8.674;2023-01-29T18:19:24;-5.60;1.00
10597;DHT22;5346;48.766;8.674;2023-01-29T18:22:04;-5.70;1.00
10597;DHT22;5346;48.766;8.674;2023-01-29T18:24:38;-5.80;1.00
10597;DHT22;5346;48.766;8.674;2023-01-29T18:27:05;-5.70;1.00
10597;DHT22;5346;48.766;8.674;2023-01-29T18:29:38;-5.80;1.00
10597;DHT22;5346;48.766;8.674;2023-01-29T18:32:11;-5.80;1.00
10597;DHT22;5346;48.766;8.674;2023-01-29T18:34:38;-5.80;1.00
10597;DHT22;5346;48.766;8.674;2023-01-29T18:37:12;-5.80;1.00
10597;DHT22;5346;48.766;8.674;2023-01-29T18:39:45;-5.80;1.00
10597;DHT22;5346;48.766;8.674;2023-01-29T18:42:18;-5.90;1.00
10597;DHT22;5346;48.766;8.674;2023-01-29T18:44:45;-6.00;1.00
10597;DHT22;5346;48.766;8.674;2023-01-29T18:47:12;-6.10;1.00
10597;DHT22;5346;48.766;8.674;2023-01-29T18:49:46;-6.20;1.00
10597;DHT22;5346;48.766;8.674;2023-01-29T18:52:20;-6.20;1.00